レシフェ の空港の天気 - METARとTAF

レシフェ・グアララペス国際空港 ( SBRF / REC ) - ブラジル ペルナンブーコ州レシフェ
飛行場実況気象(Metar)
観測時間12/10 02:00 BRT (12/10 05:00 UTC)
風向・風速南南西 3m/s
視程9000m
天気現象弱い雨
全天の8割程度の雲 雲底高度 550m
気温25℃
湿度94%
気圧1014hPa
METARSBRF 100500Z 21005KT 9000 -RA BKN018 25/24 Q1014
過去の天気等 Google飛行場航空写真 Wunderground天気予報

過去48時間のMETAR

飛行場予報(TAF)
発表時間: 12/09 23:30 BRT (12/10 02:30 UTC)
予報対象時間: 10日3時 BRT ~ 11日3時 BRT
風向・風速東南東 3m/s
視程8000m
全天の4割程度の雲 雲底高度 550m
10日4時 BRT ~ 10日6時 BRT に徐々に
全天の8割程度の雲 雲底高度 460m
10日6時 BRT ~ 10日7時 BRT に 確率 30% で一時的に
視程4500m
天気現象しゅう雨
10日9時 BRT ~ 10日11時 BRT に徐々に
風向・風速東南東 7m/s
全天の4割程度の雲 雲底高度 460m
全天の4割程度の雲 雲底高度 1220m
10日22時 BRT ~ 10日24時 BRT に徐々に
風向・風速東南東 4m/s
TAF SBRF 100230Z 1006/1106 12006KT 8000 SCT018 TN25/1007Z TX30/1014Z
BECMG 1007/1009 BKN015
PROB30 TEMPO 1009/1010 4500 SHRA
BECMG 1012/1014 12013KT SCT015 SCT040
BECMG 1101/1103 12008KT RMK PEU